Main page
METAR-TAF:

METAR-TAF

Airports :

Arvidsjaur Airport

Arvidsjaur, Sweden

latitude: 65-35-25N, longitude: 019-16-55E, elevation: 379 m

Current weather observation

The report was made 16 minutes ago, at 17:20 UTC
Wind 8 kt from the Southwest
Temperature 0°C
Humidity 74%
Pressure 974 hPa
Visibility 10 km or more
no clouds below 1500 m and no cumulonimbus

METAR: ESNX 051720Z 22008KT CAVOK 00/M04 Q0974

Time: 18:36 (17:36 UTC)

Forecast

The report was made 3 hours and 6 minutes ago, at 14:30 UTC
Forecast valid from 05 at 15 UTC to 05 at 21 UTC
Wind 7 kt from the South/Southwest
Visibility 10 km or more
no clouds below 1500 m and no cumulonimbus
Temporary
from 05 at 15 UTC to 05 at 19 UTC
Wind 15 kt from the West/Southwest with gusts up to 25 kt

TAF: ESNX 051430Z 0515/0521 21007KT CAVOK TEMPO 0515/0519 25015G25KT

Weather observations and forecasts of more than 4000 airports (METAR and TAF reports).

The available stations are represented by yellow and red dots on the map.

Hover mouse over dot to see the name of the station.

Then click to see weather observations and forecasts.

To change the map : click on the green buttons with a black cross to zoom in, on the green button with a dash to zoom out, or on the green arrows for adjacent maps.


METAR-TAF: